Terminal Aerodrome Forecast
Issued by NWS

Home | Current Version | Previous Version | Text Only | Print | Product List | Glossary On
Versions: 1 2 3 4 5 6 7 8 9 10 11 12 13 14
000
FTUS43 KILX 240528
TAFDEC
TAF
KDEC 240528Z 2406/2506 17009KT P6SM SCT020
     FM241000 17008KT 5SM -SHRA BR VCTS SCT012 OVC025CB
      TEMPO 2410/2413 3SM TSRA BR SCT006 OVC012CB
     FM241500 22011KT P6SM BKN025
     FM242000 19012KT P6SM SCT040 BKN250
     FM250200 19010KT P6SM VCTS BKN050CB=

USA.gov is the U.S. government's official web portal to all federal, state and local government web resources and services.